sensor_id;sensor_type;location;lat;lon;timestamp;temperature;humidity
22379;DHT22;11357;49.990;7.370;2022-07-30T00:00:18;19.80;55.70
22379;DHT22;11357;49.990;7.370;2022-07-30T00:02:43;19.70;55.90
22379;DHT22;11357;49.990;7.370;2022-07-30T00:05:09;19.70;56.00
22379;DHT22;11357;49.990;7.370;2022-07-30T00:07:35;19.70;56.00
22379;DHT22;11357;49.990;7.370;2022-07-30T00:10:02;19.70;56.00
22379;DHT22;11357;49.990;7.370;2022-07-30T00:12:28;19.60;56.20
22379;DHT22;11357;49.990;7.370;2022-07-30T00:14:53;19.50;56.30
22379;DHT22;11357;49.990;7.370;2022-07-30T00:17:19;19.40;56.60
22379;DHT22;11357;49.990;7.370;2022-07-30T00:19:45;19.30;57.00
22379;DHT22;11357;49.990;7.370;2022-07-30T00:22:11;19.20;57.20
22379;DHT22;11357;49.990;7.370;2022-07-30T00:24:37;19.20;57.50
22379;DHT22;11357;49.990;7.370;2022-07-30T00:27:03;19.20;57.60
22379;DHT22;11357;49.990;7.370;2022-07-30T00:29:29;19.20;57.70
22379;DHT22;11357;49.990;7.370;2022-07-30T00:31:55;19.10;57.80
22379;DHT22;11357;49.990;7.370;2022-07-30T00:34:21;19.00;58.10
22379;DHT22;11357;49.990;7.370;2022-07-30T00:36:46;18.90;58.40
22379;DHT22;11357;49.990;7.370;2022-07-30T00:39:12;18.80;58.60
22379;DHT22;11357;49.990;7.370;2022-07-30T00:41:59;18.70;58.80
22379;DHT22;11357;49.990;7.370;2022-07-30T00:44:25;18.60;59.20
22379;DHT22;11357;49.990;7.370;2022-07-30T00:46:52;18.60;59.20
22379;DHT22;11357;49.990;7.370;2022-07-30T00:49:18;18.60;59.50
22379;DHT22;11357;49.990;7.370;2022-07-30T00:51:43;18.50;59.50
22379;DHT22;11357;49.990;7.370;2022-07-30T00:54:09;18.60;59.80
22379;DHT22;11357;49.990;7.370;2022-07-30T00:56:35;18.50;59.80
22379;DHT22;11357;49.990;7.370;2022-07-30T00:59:01;18.50;59.90
22379;DHT22;11357;49.990;7.370;2022-07-30T01:01:26;18.50;59.90
22379;DHT22;11357;49.990;7.370;2022-07-30T01:03:52;18.50;60.00
22379;DHT22;11357;49.990;7.370;2022-07-30T01:06:18;18.50;60.20
22379;DHT22;11357;49.990;7.370;2022-07-30T01:08:43;18.50;60.30
22379;DHT22;11357;49.990;7.370;2022-07-30T01:11:10;18.40;60.30
22379;DHT22;11357;49.990;7.370;2022-07-30T01:13:36;18.40;60.50
22379;DHT22;11357;49.990;7.370;2022-07-30T01:16:01;18.30;60.60
22379;DHT22;11357;49.990;7.370;2022-07-30T01:18:29;18.30;60.80
22379;DHT22;11357;49.990;7.370;2022-07-30T01:21:19;18.20;60.90
22379;DHT22;11357;49.990;7.370;2022-07-30T01:23:46;18.10;61.10
22379;DHT22;11357;49.990;7.370;2022-07-30T01:26:17;18.10;61.10
22379;DHT22;11357;49.990;7.370;2022-07-30T01:28:52;18.00;61.30
22379;DHT22;11357;49.990;7.370;2022-07-30T01:31:20;17.90;61.60
22379;DHT22;11357;49.990;7.370;2022-07-30T01:33:47;17.80;61.80
22379;DHT22;11357;49.990;7.370;2022-07-30T01:36:16;17.80;62.80
22379;DHT22;11357;49.990;7.370;2022-07-30T01:38:44;17.70;62.30
22379;DHT22;11357;49.990;7.370;2022-07-30T01:41:11;17.70;62.60
22379;DHT22;11357;49.990;7.370;2022-07-30T01:43:37;17.80;62.70
22379;DHT22;11357;49.990;7.370;2022-07-30T01:46:04;17.80;62.80
22379;DHT22;11357;49.990;7.370;2022-07-30T01:48:34;17.80;62.80
22379;DHT22;11357;49.990;7.370;2022-07-30T01:51:05;17.80;62.90
22379;DHT22;11357;49.990;7.370;2022-07-30T01:53:34;17.80;63.00
22379;DHT22;11357;49.990;7.370;2022-07-30T01:56:01;17.80;63.30
22379;DHT22;11357;49.990;7.370;2022-07-30T01:58:31;17.70;63.50
22379;DHT22;11357;49.990;7.370;2022-07-30T02:00:58;17.60;63.60
22379;DHT22;11357;49.990;7.370;2022-07-30T02:03:25;17.60;63.80
22379;DHT22;11357;49.990;7.370;2022-07-30T02:05:59;17.50;64.00
22379;DHT22;11357;49.990;7.370;2022-07-30T02:11:05;17.50;64.30
22379;DHT22;11357;49.990;7.370;2022-07-30T02:13:33;17.50;64.60
22379;DHT22;11357;49.990;7.370;2022-07-30T02:16:10;17.50;64.60
22379;DHT22;11357;49.990;7.370;2022-07-30T02:21:08;17.60;64.50
22379;DHT22;11357;49.990;7.370;2022-07-30T02:23:45;17.60;64.40
22379;DHT22;11357;49.990;7.370;2022-07-30T02:26:13;17.60;64.50
22379;DHT22;11357;49.990;7.370;2022-07-30T02:28:45;17.60;64.60
22379;DHT22;11357;49.990;7.370;2022-07-30T02:31:12;17.60;64.90
22379;DHT22;11357;49.990;7.370;2022-07-30T02:33:42;17.50;65.00
22379;DHT22;11357;49.990;7.370;2022-07-30T02:36:09;17.50;65.20
22379;DHT22;11357;49.990;7.370;2022-07-30T02:38:36;17.40;65.30
22379;DHT22;11357;49.990;7.370;2022-07-30T02:41:03;17.50;65.40
22379;DHT22;11357;49.990;7.370;2022-07-30T02:43:33;17.50;65.40
22379;DHT22;11357;49.990;7.370;2022-07-30T02:46:00;17.50;65.20
22379;DHT22;11357;49.990;7.370;2022-07-30T02:48:26;17.60;65.20
22379;DHT22;11357;49.990;7.370;2022-07-30T02:50:54;17.50;65.20
22379;DHT22;11357;49.990;7.370;2022-07-30T02:53:22;17.50;65.30
22379;DHT22;11357;49.990;7.370;2022-07-30T02:55:49;17.50;65.20
22379;DHT22;11357;49.990;7.370;2022-07-30T02:58:21;17.50;65.10
22379;DHT22;11357;49.990;7.370;2022-07-30T03:00:49;17.50;65.00
22379;DHT22;11357;49.990;7.370;2022-07-30T03:03:15;17.60;65.00
22379;DHT22;11357;49.990;7.370;2022-07-30T03:05:42;17.50;64.90
22379;DHT22;11357;49.990;7.370;2022-07-30T03:08:09;17.50;65.20
22379;DHT22;11357;49.990;7.370;2022-07-30T03:10:36;17.40;65.60
22379;DHT22;11357;49.990;7.370;2022-07-30T03:13:05;17.30;65.90
22379;DHT22;11357;49.990;7.370;2022-07-30T03:15:33;17.20;66.20
22379;DHT22;11357;49.990;7.370;2022-07-30T03:18:01;17.20;66.60
22379;DHT22;11357;49.990;7.370;2022-07-30T03:20:30;17.20;66.70
22379;DHT22;11357;49.990;7.370;2022-07-30T03:22:58;17.20;66.90
22379;DHT22;11357;49.990;7.370;2022-07-30T03:25:26;17.20;67.10
22379;DHT22;11357;49.990;7.370;2022-07-30T03:27:54;17.20;67.30
22379;DHT22;11357;49.990;7.370;2022-07-30T03:30:22;17.20;67.30
22379;DHT22;11357;49.990;7.370;2022-07-30T03:32:50;17.20;67.40
22379;DHT22;11357;49.990;7.370;2022-07-30T03:35:17;17.10;67.60
22379;DHT22;11357;49.990;7.370;2022-07-30T03:37:44;17.10;67.80
22379;DHT22;11357;49.990;7.370;2022-07-30T03:40:10;17.10;67.90
22379;DHT22;11357;49.990;7.370;2022-07-30T03:42:38;17.10;68.00
22379;DHT22;11357;49.990;7.370;2022-07-30T03:45:05;17.10;68.20
22379;DHT22;11357;49.990;7.370;2022-07-30T03:47:35;17.10;68.30
22379;DHT22;11357;49.990;7.370;2022-07-30T03:50:01;17.10;68.30
22379;DHT22;11357;49.990;7.370;2022-07-30T03:52:27;17.20;68.40
22379;DHT22;11357;49.990;7.370;2022-07-30T03:54:53;17.20;68.40
22379;DHT22;11357;49.990;7.370;2022-07-30T03:57:19;17.20;68.40
22379;DHT22;11357;49.990;7.370;2022-07-30T03:59:45;17.20;68.40
22379;DHT22;11357;49.990;7.370;2022-07-30T04:02:12;17.30;68.30
22379;DHT22;11357;49.990;7.370;2022-07-30T04:04:44;17.40;68.20
22379;DHT22;11357;49.990;7.370;2022-07-30T04:07:10;17.40;68.20
22379;DHT22;11357;49.990;7.370;2022-07-30T04:09:36;17.50;68.30
22379;DHT22;11357;49.990;7.370;2022-07-30T04:12:02;17.50;68.30
22379;DHT22;11357;49.990;7.370;2022-07-30T04:14:41;17.60;68.90
22379;DHT22;11357;49.990;7.370;2022-07-30T04:17:19;17.60;68.20
22379;DHT22;11357;49.990;7.370;2022-07-30T04:19:50;17.70;68.10
22379;DHT22;11357;49.990;7.370;2022-07-30T04:22:20;17.70;68.10
22379;DHT22;11357;49.990;7.370;2022-07-30T04:24:48;17.80;68.10
22379;DHT22;11357;49.990;7.370;2022-07-30T04:27:17;17.80;67.90
22379;DHT22;11357;49.990;7.370;2022-07-30T04:29:43;17.90;67.90
22379;DHT22;11357;49.990;7.370;2022-07-30T04:32:09;18.00;68.60
22379;DHT22;11357;49.990;7.370;2022-07-30T04:34:35;18.00;67.80
22379;DHT22;11357;49.990;7.370;2022-07-30T04:37:01;18.10;67.80
22379;DHT22;11357;49.990;7.370;2022-07-30T04:39:27;18.10;68.00
22379;DHT22;11357;49.990;7.370;2022-07-30T04:41:53;18.20;68.30
22379;DHT22;11357;49.990;7.370;2022-07-30T04:44:19;18.20;68.60
22379;DHT22;11357;49.990;7.370;2022-07-30T04:46:46;18.20;68.90
22379;DHT22;11357;49.990;7.370;2022-07-30T04:49:13;18.30;69.20
22379;DHT22;11357;49.990;7.370;2022-07-30T04:51:41;18.30;69.50
22379;DHT22;11357;49.990;7.370;2022-07-30T04:54:09;18.40;69.60
22379;DHT22;11357;49.990;7.370;2022-07-30T04:56:35;18.50;69.70
22379;DHT22;11357;49.990;7.370;2022-07-30T04:59:02;18.60;69.50
22379;DHT22;11357;49.990;7.370;2022-07-30T05:01:35;18.70;69.40
22379;DHT22;11357;49.990;7.370;2022-07-30T05:04:02;18.70;69.20
22379;DHT22;11357;49.990;7.370;2022-07-30T05:06:29;18.80;69.00
22379;DHT22;11357;49.990;7.370;2022-07-30T05:08:56;18.80;68.80
22379;DHT22;11357;49.990;7.370;2022-07-30T05:11:22;18.80;68.70
22379;DHT22;11357;49.990;7.370;2022-07-30T05:13:48;18.90;68.70
22379;DHT22;11357;49.990;7.370;2022-07-30T05:16:14;18.90;68.70
22379;DHT22;11357;49.990;7.370;2022-07-30T05:18:40;18.90;68.50
22379;DHT22;11357;49.990;7.370;2022-07-30T05:21:06;19.00;68.40
22379;DHT22;11357;49.990;7.370;2022-07-30T05:23:33;19.00;68.10
22379;DHT22;11357;49.990;7.370;2022-07-30T05:25:59;19.10;67.90
22379;DHT22;11357;49.990;7.370;2022-07-30T05:28:25;19.20;67.70
22379;DHT22;11357;49.990;7.370;2022-07-30T05:30:54;19.30;67.60
22379;DHT22;11357;49.990;7.370;2022-07-30T05:33:23;19.50;67.70
22379;DHT22;11357;49.990;7.370;2022-07-30T05:35:49;19.60;67.40
22379;DHT22;11357;49.990;7.370;2022-07-30T05:38:16;19.70;67.30
22379;DHT22;11357;49.990;7.370;2022-07-30T06:11:28;21.30;64.30
22379;DHT22;11357;49.990;7.370;2022-07-30T06:13:54;21.50;63.90
22379;DHT22;11357;49.990;7.370;2022-07-30T06:16:20;21.60;63.40
22379;DHT22;11357;49.990;7.370;2022-07-30T06:18:45;21.70;62.90
22379;DHT22;11357;49.990;7.370;2022-07-30T06:21:11;21.90;62.70
22379;DHT22;11357;49.990;7.370;2022-07-30T06:23:36;22.10;62.40
22379;DHT22;11357;49.990;7.370;2022-07-30T06:26:02;22.30;62.70
22379;DHT22;11357;49.990;7.370;2022-07-30T06:28:28;22.60;61.10
22379;DHT22;11357;49.990;7.370;2022-07-30T06:30:54;22.80;60.20
22379;DHT22;11357;49.990;7.370;2022-07-30T06:33:19;23.00;59.70
22379;DHT22;11357;49.990;7.370;2022-07-30T06:35:45;23.30;58.90
22379;DHT22;11357;49.990;7.370;2022-07-30T06:38:11;23.50;58.10
22379;DHT22;11357;49.990;7.370;2022-07-30T06:40:37;23.80;57.70
22379;DHT22;11357;49.990;7.370;2022-07-30T06:43:03;24.10;57.00
22379;DHT22;11357;49.990;7.370;2022-07-30T06:45:29;24.30;56.40
22379;DHT22;11357;49.990;7.370;2022-07-30T06:47:58;24.60;55.90
22379;DHT22;11357;49.990;7.370;2022-07-30T06:50:25;25.00;55.20
22379;DHT22;11357;49.990;7.370;2022-07-30T06:52:50;25.30;54.50
22379;DHT22;11357;49.990;7.370;2022-07-30T06:55:17;25.60;53.80
22379;DHT22;11357;49.990;7.370;2022-07-30T06:57:42;25.80;53.00
22379;DHT22;11357;49.990;7.370;2022-07-30T07:00:08;26.10;52.50
22379;DHT22;11357;49.990;7.370;2022-07-30T07:02:34;26.40;51.80
22379;DHT22;11357;49.990;7.370;2022-07-30T07:05:00;26.70;51.30
22379;DHT22;11357;49.990;7.370;2022-07-30T07:07:26;27.00;50.50
22379;DHT22;11357;49.990;7.370;2022-07-30T07:09:52;27.30;49.90
22379;DHT22;11357;49.990;7.370;2022-07-30T07:12:17;27.50;49.40
22379;DHT22;11357;49.990;7.370;2022-07-30T07:14:43;27.70;48.80
22379;DHT22;11357;49.990;7.370;2022-07-30T07:17:09;27.80;48.40
22379;DHT22;11357;49.990;7.370;2022-07-30T07:19:35;27.80;47.60
22379;DHT22;11357;49.990;7.370;2022-07-30T07:22:02;27.70;47.50
22379;DHT22;11357;49.990;7.370;2022-07-30T07:24:27;27.70;47.60
22379;DHT22;11357;49.990;7.370;2022-07-30T07:26:53;27.70;47.20
22379;DHT22;11357;49.990;7.370;2022-07-30T07:29:19;27.70;47.20
22379;DHT22;11357;49.990;7.370;2022-07-30T07:31:44;27.90;47.40
22379;DHT22;11357;49.990;7.370;2022-07-30T07:34:11;28.00;46.50
22379;DHT22;11357;49.990;7.370;2022-07-30T07:36:36;28.10;46.60
22379;DHT22;11357;49.990;7.370;2022-07-30T07:39:03;28.20;45.80
22379;DHT22;11357;49.990;7.370;2022-07-30T07:41:37;28.10;45.50
22379;DHT22;11357;49.990;7.370;2022-07-30T07:44:04;27.90;45.90
22379;DHT22;11357;49.990;7.370;2022-07-30T07:46:30;28.00;45.80
22379;DHT22;11357;49.990;7.370;2022-07-30T07:48:56;28.40;45.90
22379;DHT22;11357;49.990;7.370;2022-07-30T07:51:22;28.80;45.30
22379;DHT22;11357;49.990;7.370;2022-07-30T07:53:48;29.40;44.30
22379;DHT22;11357;49.990;7.370;2022-07-30T07:56:13;29.80;43.60
22379;DHT22;11357;49.990;7.370;2022-07-30T07:58:39;30.30;42.60
22379;DHT22;11357;49.990;7.370;2022-07-30T08:01:05;30.70;41.80
22379;DHT22;11357;49.990;7.370;2022-07-30T08:03:31;31.20;41.20
22379;DHT22;11357;49.990;7.370;2022-07-30T08:05:57;31.40;40.20
22379;DHT22;11357;49.990;7.370;2022-07-30T08:08:23;31.30;39.50
22379;DHT22;11357;49.990;7.370;2022-07-30T08:10:49;31.10;38.80
22379;DHT22;11357;49.990;7.370;2022-07-30T08:13:14;30.80;39.00
22379;DHT22;11357;49.990;7.370;2022-07-30T08:15:41;30.60;39.00
22379;DHT22;11357;49.990;7.370;2022-07-30T08:18:06;30.70;39.60
22379;DHT22;11357;49.990;7.370;2022-07-30T08:20:33;31.10;39.00
22379;DHT22;11357;49.990;7.370;2022-07-30T08:23:00;31.50;38.40
22379;DHT22;11357;49.990;7.370;2022-07-30T08:25:26;31.90;37.60
22379;DHT22;11357;49.990;7.370;2022-07-30T08:27:52;32.30;36.70
22379;DHT22;11357;49.990;7.370;2022-07-30T08:30:18;32.60;36.50
22379;DHT22;11357;49.990;7.370;2022-07-30T08:32:44;33.00;35.60
22379;DHT22;11357;49.990;7.370;2022-07-30T08:35:10;33.30;35.10
22379;DHT22;11357;49.990;7.370;2022-07-30T08:37:36;33.40;34.10
22379;DHT22;11357;49.990;7.370;2022-07-30T08:40:03;33.50;33.10
22379;DHT22;11357;49.990;7.370;2022-07-30T08:42:30;33.60;33.00
22379;DHT22;11357;49.990;7.370;2022-07-30T08:44:58;33.90;32.80
22379;DHT22;11357;49.990;7.370;2022-07-30T08:47:29;34.20;31.00
22379;DHT22;11357;49.990;7.370;2022-07-30T08:49:56;34.00;29.20
22379;DHT22;11357;49.990;7.370;2022-07-30T08:52:27;33.50;29.50
22379;DHT22;11357;49.990;7.370;2022-07-30T08:54:54;33.10;30.00
22379;DHT22;11357;49.990;7.370;2022-07-30T08:57:20;32.60;29.70
22379;DHT22;11357;49.990;7.370;2022-07-30T08:59:47;32.20;30.00
22379;DHT22;11357;49.990;7.370;2022-07-30T09:02:13;32.00;30.10
22379;DHT22;11357;49.990;7.370;2022-07-30T09:04:39;32.00;30.30
22379;DHT22;11357;49.990;7.370;2022-07-30T09:07:04;32.40;30.30
22379;DHT22;11357;49.990;7.370;2022-07-30T09:09:30;32.60;29.80
22379;DHT22;11357;49.990;7.370;2022-07-30T09:11:56;33.10;30.00
22379;DHT22;11357;49.990;7.370;2022-07-30T09:14:21;33.60;29.70
22379;DHT22;11357;49.990;7.370;2022-07-30T09:16:55;34.30;29.20
22379;DHT22;11357;49.990;7.370;2022-07-30T09:19:21;34.50;28.40
22379;DHT22;11357;49.990;7.370;2022-07-30T09:21:55;34.30;27.30
22379;DHT22;11357;49.990;7.370;2022-07-30T09:24:21;33.80;28.30
22379;DHT22;11357;49.990;7.370;2022-07-30T09:27:01;33.90;28.50
22379;DHT22;11357;49.990;7.370;2022-07-30T09:29:31;33.70;28.60
22379;DHT22;11357;49.990;7.370;2022-07-30T09:32:05;33.80;28.80
22379;DHT22;11357;49.990;7.370;2022-07-30T09:34:35;34.00;28.80
22379;DHT22;11357;49.990;7.370;2022-07-30T09:37:04;34.40;28.40
22379;DHT22;11357;49.990;7.370;2022-07-30T09:39:35;34.30;28.00
22379;DHT22;11357;49.990;7.370;2022-07-30T09:42:02;34.00;28.30
22379;DHT22;11357;49.990;7.370;2022-07-30T09:44:29;34.20;28.60
22379;DHT22;11357;49.990;7.370;2022-07-30T09:46:56;34.60;28.40
22379;DHT22;11357;49.990;7.370;2022-07-30T09:49:27;34.90;27.90
22379;DHT22;11357;49.990;7.370;2022-07-30T09:51:54;34.90;28.10
22379;DHT22;11357;49.990;7.370;2022-07-30T09:54:20;35.10;28.10
22379;DHT22;11357;49.990;7.370;2022-07-30T09:56:46;35.00;28.10
22379;DHT22;11357;49.990;7.370;2022-07-30T09:59:25;35.30;27.80
22379;DHT22;11357;49.990;7.370;2022-07-30T10:01:53;35.50;27.80
22379;DHT22;11357;49.990;7.370;2022-07-30T10:04:30;36.20;27.80
22379;DHT22;11357;49.990;7.370;2022-07-30T10:06:58;36.90;27.40
22379;DHT22;11357;49.990;7.370;2022-07-30T10:09:32;37.50;26.70
22379;DHT22;11357;49.990;7.370;2022-07-30T10:12:03;38.00;26.40
22379;DHT22;11357;49.990;7.370;2022-07-30T10:14:33;38.10;25.80
22379;DHT22;11357;49.990;7.370;2022-07-30T10:17:00;37.70;25.70
22379;DHT22;11357;49.990;7.370;2022-07-30T10:19:26;37.20;25.80
22379;DHT22;11357;49.990;7.370;2022-07-30T10:21:53;37.10;26.30
22379;DHT22;11357;49.990;7.370;2022-07-30T10:24:23;37.30;26.20
22379;DHT22;11357;49.990;7.370;2022-07-30T10:26:52;37.60;26.20
22379;DHT22;11357;49.990;7.370;2022-07-30T10:29:19;37.80;26.30
22379;DHT22;11357;49.990;7.370;2022-07-30T10:31:49;38.30;26.10
22379;DHT22;11357;49.990;7.370;2022-07-30T10:34:17;38.90;25.80
22379;DHT22;11357;49.990;7.370;2022-07-30T10:36:46;39.30;26.20
22379;DHT22;11357;49.990;7.370;2022-07-30T10:39:19;39.70;25.00
22379;DHT22;11357;49.990;7.370;2022-07-30T10:42:20;40.00;24.80
22379;DHT22;11357;49.990;7.370;2022-07-30T10:47:48;40.50;23.90
22379;DHT22;11357;49.990;7.370;2022-07-30T10:50:17;40.70;23.80
22379;DHT22;11357;49.990;7.370;2022-07-30T10:52:58;40.50;23.50
22379;DHT22;11357;49.990;7.370;2022-07-30T10:55:33;40.30;23.40
22379;DHT22;11357;49.990;7.370;2022-07-30T10:58:07;39.60;23.80
22379;DHT22;11357;49.990;7.370;2022-07-30T11:00:34;39.20;24.10
22379;DHT22;11357;49.990;7.370;2022-07-30T11:05:42;39.70;24.20
22379;DHT22;11357;49.990;7.370;2022-07-30T11:08:31;40.10;24.50
22379;DHT22;11357;49.990;7.370;2022-07-30T11:10:57;40.10;23.50
22379;DHT22;11357;49.990;7.370;2022-07-30T11:16:18;40.10;23.70
22379;DHT22;11357;49.990;7.370;2022-07-30T11:19:17;40.20;23.30
22379;DHT22;11357;49.990;7.370;2022-07-30T11:21:46;39.90;23.90
22379;DHT22;11357;49.990;7.370;2022-07-30T11:24:43;40.20;23.70
22379;DHT22;11357;49.990;7.370;2022-07-30T11:27:09;40.60;23.50
22379;DHT22;11357;49.990;7.370;2022-07-30T11:29:39;40.80;23.10
22379;DHT22;11357;49.990;7.370;2022-07-30T11:32:28;40.30;22.60
22379;DHT22;11357;49.990;7.370;2022-07-30T11:40:25;39.10;23.50
22379;DHT22;11357;49.990;7.370;2022-07-30T11:43:13;39.30;23.80
22379;DHT22;11357;49.990;7.370;2022-07-30T11:45:37;39.60;23.80
22379;DHT22;11357;49.990;7.370;2022-07-30T11:48:09;39.90;22.70
22379;DHT22;11357;49.990;7.370;2022-07-30T11:50:35;39.40;22.80
22379;DHT22;11357;49.990;7.370;2022-07-30T11:53:12;39.50;23.30
22379;DHT22;11357;49.990;7.370;2022-07-30T11:55:40;40.00;22.90
22379;DHT22;11357;49.990;7.370;2022-07-30T12:00:52;41.20;22.30
22379;DHT22;11357;49.990;7.370;2022-07-30T12:03:20;41.70;21.80
22379;DHT22;11357;49.990;7.370;2022-07-30T12:05:47;42.00;21.20
22379;DHT22;11357;49.990;7.370;2022-07-30T12:08:14;41.90;20.90
22379;DHT22;11357;49.990;7.370;2022-07-30T12:10:41;41.70;20.90
22379;DHT22;11357;49.990;7.370;2022-07-30T12:13:11;41.40;20.70
22379;DHT22;11357;49.990;7.370;2022-07-30T12:15:40;40.80;20.80
22379;DHT22;11357;49.990;7.370;2022-07-30T12:18:06;40.60;21.20
22379;DHT22;11357;49.990;7.370;2022-07-30T12:20:32;40.80;21.00
22379;DHT22;11357;49.990;7.370;2022-07-30T12:22:58;41.20;21.10
22379;DHT22;11357;49.990;7.370;2022-07-30T12:25:24;41.50;20.90
22379;DHT22;11357;49.990;7.370;2022-07-30T12:27:50;41.70;20.60
22379;DHT22;11357;49.990;7.370;2022-07-30T12:30:17;41.50;20.50
22379;DHT22;11357;49.990;7.370;2022-07-30T12:32:43;41.00;20.60
22379;DHT22;11357;49.990;7.370;2022-07-30T12:35:10;40.40;20.60
22379;DHT22;11357;49.990;7.370;2022-07-30T12:37:36;39.90;21.10
22379;DHT22;11357;49.990;7.370;2022-07-30T12:40:09;39.70;21.40
22379;DHT22;11357;49.990;7.370;2022-07-30T12:42:36;40.10;21.50
22379;DHT22;11357;49.990;7.370;2022-07-30T12:45:02;40.30;21.10
22379;DHT22;11357;49.990;7.370;2022-07-30T12:47:29;40.30;20.90
22379;DHT22;11357;49.990;7.370;2022-07-30T12:50:00;40.10;21.10
22379;DHT22;11357;49.990;7.370;2022-07-30T12:52:33;40.30;21.10
22379;DHT22;11357;49.990;7.370;2022-07-30T12:55:02;40.70;21.00
22379;DHT22;11357;49.990;7.370;2022-07-30T13:03:23;41.90;20.20
22379;DHT22;11357;49.990;7.370;2022-07-30T13:05:51;41.90;20.30
22379;DHT22;11357;49.990;7.370;2022-07-30T13:08:17;41.30;19.50
22379;DHT22;11357;49.990;7.370;2022-07-30T13:10:59;40.30;19.90
22379;DHT22;11357;49.990;7.370;2022-07-30T13:13:28;38.90;20.50
22379;DHT22;11357;49.990;7.370;2022-07-30T13:15:57;38.70;21.20
22379;DHT22;11357;49.990;7.370;2022-07-30T13:18:24;38.50;21.20
22379;DHT22;11357;49.990;7.370;2022-07-30T13:20:49;38.10;21.20
22379;DHT22;11357;49.990;7.370;2022-07-30T13:23:16;37.80;21.60
22379;DHT22;11357;49.990;7.370;2022-07-30T13:25:41;38.00;22.20
22379;DHT22;11357;49.990;7.370;2022-07-30T13:28:07;38.10;21.50
22379;DHT22;11357;49.990;7.370;2022-07-30T13:30:33;38.30;21.70
22379;DHT22;11357;49.990;7.370;2022-07-30T13:32:58;38.80;21.70
22379;DHT22;11357;49.990;7.370;2022-07-30T13:35:24;39.30;21.30
22379;DHT22;11357;49.990;7.370;2022-07-30T13:37:50;39.60;21.00
22379;DHT22;11357;49.990;7.370;2022-07-30T13:40:15;39.60;20.40
22379;DHT22;11357;49.990;7.370;2022-07-30T13:42:41;39.50;20.60
22379;DHT22;11357;49.990;7.370;2022-07-30T13:45:07;39.60;20.70
22379;DHT22;11357;49.990;7.370;2022-07-30T13:47:33;39.70;20.40
22379;DHT22;11357;49.990;7.370;2022-07-30T13:49:58;40.00;20.40
22379;DHT22;11357;49.990;7.370;2022-07-30T13:52:24;40.30;20.20
22379;DHT22;11357;49.990;7.370;2022-07-30T13:54:50;40.10;19.90
22379;DHT22;11357;49.990;7.370;2022-07-30T13:57:18;39.70;19.80
22379;DHT22;11357;49.990;7.370;2022-07-30T13:59:43;38.90;19.60
22379;DHT22;11357;49.990;7.370;2022-07-30T14:02:09;38.00;20.00
22379;DHT22;11357;49.990;7.370;2022-07-30T14:04:35;36.80;20.30
22379;DHT22;11357;49.990;7.370;2022-07-30T14:07:01;36.10;20.90
22379;DHT22;11357;49.990;7.370;2022-07-30T14:09:27;35.40;21.00
22379;DHT22;11357;49.990;7.370;2022-07-30T14:11:53;34.90;21.50
22379;DHT22;11357;49.990;7.370;2022-07-30T14:14:19;34.70;21.60
22379;DHT22;11357;49.990;7.370;2022-07-30T14:16:48;34.70;21.90
22379;DHT22;11357;49.990;7.370;2022-07-30T14:19:16;35.20;21.70
22379;DHT22;11357;49.990;7.370;2022-07-30T14:21:42;35.30;21.50
22379;DHT22;11357;49.990;7.370;2022-07-30T14:24:08;35.50;21.50
22379;DHT22;11357;49.990;7.370;2022-07-30T14:26:36;35.10;21.10
22379;DHT22;11357;49.990;7.370;2022-07-30T14:29:04;34.50;21.50
22379;DHT22;11357;49.990;7.370;2022-07-30T14:31:30;34.20;22.10
22379;DHT22;11357;49.990;7.370;2022-07-30T14:33:56;34.00;22.30
22379;DHT22;11357;49.990;7.370;2022-07-30T14:36:22;34.00;22.40
22379;DHT22;11357;49.990;7.370;2022-07-30T14:38:50;34.30;22.60
22379;DHT22;11357;49.990;7.370;2022-07-30T14:41:15;34.80;22.60
22379;DHT22;11357;49.990;7.370;2022-07-30T14:43:41;35.30;22.00
22379;DHT22;11357;49.990;7.370;2022-07-30T14:46:07;35.50;21.80
22379;DHT22;11357;49.990;7.370;2022-07-30T14:48:32;35.20;21.80
22379;DHT22;11357;49.990;7.370;2022-07-30T14:50:58;35.10;21.80
22379;DHT22;11357;49.990;7.370;2022-07-30T14:53:26;35.10;21.80
22379;DHT22;11357;49.990;7.370;2022-07-30T14:55:51;35.30;21.70
22379;DHT22;11357;49.990;7.370;2022-07-30T14:58:17;35.40;21.60
22379;DHT22;11357;49.990;7.370;2022-07-30T15:00:43;35.50;21.50
22379;DHT22;11357;49.990;7.370;2022-07-30T15:03:08;35.50;21.60
22379;DHT22;11357;49.990;7.370;2022-07-30T15:05:35;35.30;22.20
22379;DHT22;11357;49.990;7.370;2022-07-30T15:08:01;35.00;23.40
22379;DHT22;11357;49.990;7.370;2022-07-30T15:10:27;34.70;23.90
22379;DHT22;11357;49.990;7.370;2022-07-30T15:12:52;34.40;24.00
22379;DHT22;11357;49.990;7.370;2022-07-30T15:15:18;33.80;24.50
22379;DHT22;11357;49.990;7.370;2022-07-30T15:17:44;33.30;25.10
22379;DHT22;11357;49.990;7.370;2022-07-30T15:20:09;33.00;25.50
22379;DHT22;11357;49.990;7.370;2022-07-30T15:22:36;32.70;25.50
22379;DHT22;11357;49.990;7.370;2022-07-30T15:25:03;32.60;25.80
22379;DHT22;11357;49.990;7.370;2022-07-30T15:27:29;32.60;25.70
22379;DHT22;11357;49.990;7.370;2022-07-30T15:29:55;32.60;25.90
22379;DHT22;11357;49.990;7.370;2022-07-30T15:32:20;32.40;26.20
22379;DHT22;11357;49.990;7.370;2022-07-30T15:34:46;32.10;26.30
22379;DHT22;11357;49.990;7.370;2022-07-30T15:37:12;31.80;26.30
22379;DHT22;11357;49.990;7.370;2022-07-30T15:39:37;31.70;26.30
22379;DHT22;11357;49.990;7.370;2022-07-30T15:42:03;31.40;26.10
22379;DHT22;11357;49.990;7.370;2022-07-30T15:44:30;31.20;26.20
22379;DHT22;11357;49.990;7.370;2022-07-30T15:46:56;31.00;26.40
22379;DHT22;11357;49.990;7.370;2022-07-30T15:49:22;30.70;26.40
22379;DHT22;11357;49.990;7.370;2022-07-30T15:51:48;30.50;26.60
22379;DHT22;11357;49.990;7.370;2022-07-30T15:54:18;30.60;26.80
22379;DHT22;11357;49.990;7.370;2022-07-30T15:56:45;30.80;26.90
22379;DHT22;11357;49.990;7.370;2022-07-30T15:59:13;31.00;26.70
22379;DHT22;11357;49.990;7.370;2022-07-30T16:01:39;31.10;26.60
22379;DHT22;11357;49.990;7.370;2022-07-30T16:04:06;31.00;26.50
22379;DHT22;11357;49.990;7.370;2022-07-30T16:06:32;31.00;26.70
22379;DHT22;11357;49.990;7.370;2022-07-30T16:08:58;30.90;26.90
22379;DHT22;11357;49.990;7.370;2022-07-30T16:11:24;30.90;26.90
22379;DHT22;11357;49.990;7.370;2022-07-30T16:13:50;30.70;27.00
22379;DHT22;11357;49.990;7.370;2022-07-30T16:16:17;30.70;27.10
22379;DHT22;11357;49.990;7.370;2022-07-30T16:18:42;30.70;27.30
22379;DHT22;11357;49.990;7.370;2022-07-30T16:21:08;30.70;27.60
22379;DHT22;11357;49.990;7.370;2022-07-30T16:23:34;30.70;27.60
22379;DHT22;11357;49.990;7.370;2022-07-30T16:26:01;30.60;27.70
22379;DHT22;11357;49.990;7.370;2022-07-30T16:28:26;30.50;28.00
22379;DHT22;11357;49.990;7.370;2022-07-30T16:30:52;30.40;28.30